createdAt,value
2018-11-07T00:01:18.757Z,8.33
2018-11-07T00:03:30.983Z,8.41
2018-11-07T00:05:43.198Z,8.39
2018-11-07T00:07:55.517Z,8.27
2018-11-07T00:10:08.036Z,8.18
2018-11-07T00:12:20.255Z,8.22
2018-11-07T00:14:32.547Z,8.24
2018-11-07T00:16:44.766Z,8.27
2018-11-07T00:18:56.966Z,8.31
2018-11-07T00:21:09.187Z,8.37
2018-11-07T00:23:21.401Z,8.42
2018-11-07T00:25:33.640Z,8.46
2018-11-07T00:27:45.811Z,8.49
2018-11-07T00:29:58.058Z,8.55
2018-11-07T00:32:10.265Z,8.55
2018-11-07T00:34:22.491Z,8.53
2018-11-07T00:36:34.702Z,8.47
2018-11-07T00:38:46.933Z,8.36
2018-11-07T00:40:59.159Z,8.33
2018-11-07T00:43:11.389Z,8.34
2018-11-07T00:45:23.632Z,8.37
2018-11-07T00:47:35.935Z,8.38
2018-11-07T00:49:48.136Z,8.36
2018-11-07T00:52:00.370Z,8.37
2018-11-07T00:54:12.624Z,8.32
2018-11-07T00:56:24.873Z,8.31
2018-11-07T00:58:37.097Z,8.28
2018-11-07T01:00:49.316Z,8.29
2018-11-07T01:03:01.526Z,8.28
2018-11-07T01:05:13.990Z,8.28
2018-11-07T01:07:26.194Z,8.26
2018-11-07T01:09:38.587Z,8.24
2018-11-07T01:11:50.711Z,8.27
2018-11-07T01:14:02.920Z,8.31
2018-11-07T01:16:15.154Z,8.35
2018-11-07T01:18:27.426Z,8.37
2018-11-07T01:20:39.733Z,8.35
2018-11-07T01:22:51.891Z,8.28
2018-11-07T01:25:05.569Z,8.26
2018-11-07T01:27:17.757Z,8.27
2018-11-07T01:29:29.930Z,8.33
2018-11-07T01:31:42.255Z,8.40
2018-11-07T01:33:54.454Z,8.43
2018-11-07T01:36:06.705Z,8.42
2018-11-07T01:38:18.892Z,8.39
2018-11-07T01:40:31.091Z,8.36
2018-11-07T01:42:43.716Z,8.38
2018-11-07T01:44:55.969Z,8.37
2018-11-07T01:47:08.230Z,8.34
2018-11-07T01:49:20.447Z,8.31
2018-11-07T01:51:32.683Z,8.29
2018-11-07T01:53:44.877Z,8.26
2018-11-07T01:55:57.088Z,8.19
2018-11-07T01:58:09.367Z,8.18
2018-11-07T02:00:21.619Z,8.22
2018-11-07T02:02:33.942Z,8.23
2018-11-07T02:04:46.126Z,8.23
2018-11-07T02:06:58.423Z,8.22
2018-11-07T02:09:10.806Z,8.23
2018-11-07T02:11:22.999Z,8.20
2018-11-07T02:13:41.343Z,8.12
2018-11-07T02:15:54.423Z,8.09
2018-11-07T02:18:06.897Z,8.06
2018-11-07T02:20:19.090Z,7.98
2018-11-07T02:22:31.280Z,7.90
2018-11-07T02:24:43.511Z,7.85
2018-11-07T02:26:55.830Z,7.82
2018-11-07T02:29:12.689Z,7.79
2018-11-07T02:31:24.922Z,7.78
2018-11-07T02:33:37.158Z,7.80
2018-11-07T02:35:49.393Z,7.78
2018-11-07T02:38:01.608Z,7.78
2018-11-07T02:40:13.803Z,7.78
2018-11-07T02:42:26.081Z,7.76
2018-11-07T02:44:38.266Z,7.77
2018-11-07T02:46:50.442Z,7.70
2018-11-07T02:49:02.948Z,7.63
2018-11-07T02:51:15.155Z,7.54
2018-11-07T02:53:27.341Z,7.46
2018-11-07T02:55:39.532Z,7.44
2018-11-07T02:57:51.712Z,7.41
2018-11-07T03:00:05.824Z,7.44
2018-11-07T03:02:18.035Z,7.46
2018-11-07T03:04:30.217Z,7.49
2018-11-07T03:06:42.417Z,7.56
2018-11-07T03:08:54.698Z,7.64
2018-11-07T03:11:06.890Z,7.68
2018-11-07T03:13:19.083Z,7.72
2018-11-07T03:15:31.301Z,7.73
2018-11-07T03:17:43.500Z,7.77
2018-11-07T03:19:55.701Z,7.80
2018-11-07T03:22:08.001Z,7.79
2018-11-07T03:24:20.252Z,7.72
2018-11-07T03:26:32.470Z,7.67
2018-11-07T03:28:44.678Z,7.57
2018-11-07T03:30:56.983Z,7.56
2018-11-07T03:33:09.167Z,7.57
2018-11-07T03:35:27.899Z,7.54
2018-11-07T03:37:40.104Z,7.49
2018-11-07T03:39:52.354Z,7.50
2018-11-07T03:42:04.646Z,7.48
2018-11-07T03:44:16.823Z,7.49
2018-11-07T03:46:29.050Z,7.47
2018-11-07T03:48:41.243Z,7.46
2018-11-07T03:50:53.535Z,7.36
2018-11-07T03:53:05.952Z,7.19
2018-11-07T03:55:18.205Z,7.08
2018-11-07T03:57:30.496Z,7.05
2018-11-07T03:59:42.690Z,7.03
2018-11-07T04:01:54.881Z,7.06
2018-11-07T04:04:07.107Z,7.06
2018-11-07T04:06:19.301Z,7.07
2018-11-07T04:08:31.538Z,7.04
2018-11-07T04:10:43.726Z,6.93
2018-11-07T04:12:55.932Z,6.90
2018-11-07T04:15:08.736Z,6.89
2018-11-07T04:17:20.959Z,6.91
2018-11-07T04:19:33.156Z,6.91
2018-11-07T04:21:45.351Z,6.89
2018-11-07T04:24:02.260Z,6.85
2018-11-07T04:26:14.443Z,6.80
2018-11-07T04:28:26.665Z,6.76
2018-11-07T04:30:38.949Z,6.68
2018-11-07T04:32:51.123Z,6.64
2018-11-07T04:35:03.382Z,6.64
2018-11-07T04:37:15.611Z,6.63
2018-11-07T04:39:27.811Z,6.62
2018-11-07T04:41:39.981Z,6.56
2018-11-07T04:43:52.195Z,6.50
2018-11-07T04:46:04.447Z,6.42
2018-11-07T04:48:16.705Z,6.38
2018-11-07T04:50:28.938Z,6.31
2018-11-07T04:52:41.138Z,6.26
2018-11-07T04:54:53.388Z,6.26
2018-11-07T04:57:06.051Z,6.31
2018-11-07T04:59:18.259Z,6.37
2018-11-07T05:01:30.539Z,6.34
2018-11-07T05:03:42.735Z,6.30
2018-11-07T05:05:54.931Z,6.30
2018-11-07T05:08:07.105Z,6.32
2018-11-07T05:10:19.338Z,6.31
2018-11-07T05:12:31.532Z,6.30
2018-11-07T05:14:43.768Z,6.31
2018-11-07T05:16:56.044Z,6.27
2018-11-07T05:19:08.234Z,6.24
2018-11-07T05:21:20.422Z,6.18
2018-11-07T05:23:32.628Z,6.13
2018-11-07T05:25:44.846Z,6.12
2018-11-07T05:27:57.046Z,6.10
2018-11-07T05:30:10.038Z,6.06
2018-11-07T05:32:22.269Z,6.00
2018-11-07T05:34:34.471Z,5.99
2018-11-07T05:36:47.640Z,5.99
2018-11-07T05:38:59.918Z,6.02
2018-11-07T05:41:12.212Z,6.51
2018-11-07T05:43:24.370Z,6.69
2018-11-07T05:45:36.648Z,6.63
2018-11-07T05:47:48.928Z,6.54
2018-11-07T05:50:01.132Z,6.44
2018-11-07T05:52:13.376Z,6.38
2018-11-07T05:54:25.622Z,6.34
2018-11-07T05:56:37.807Z,6.24
2018-11-07T05:58:50.159Z,6.17
2018-11-07T06:01:02.406Z,6.16
2018-11-07T06:03:14.647Z,6.19
2018-11-07T06:05:26.858Z,6.22
2018-11-07T06:07:39.708Z,6.23
2018-11-07T06:09:51.954Z,6.23
2018-11-07T06:12:04.357Z,6.18
2018-11-07T06:14:16.589Z,6.14
2018-11-07T06:16:28.821Z,6.05
2018-11-07T06:18:41.059Z,6.04
2018-11-07T06:20:53.291Z,6.02
2018-11-07T06:23:06.423Z,5.99
2018-11-07T06:25:18.654Z,5.94
2018-11-07T06:27:31.183Z,5.93
2018-11-07T06:29:43.471Z,5.94
2018-11-07T06:31:55.712Z,5.94
2018-11-07T06:34:07.958Z,5.99
2018-11-07T06:36:20.137Z,6.05
2018-11-07T06:38:32.349Z,6.07
2018-11-07T06:40:44.577Z,6.11
2018-11-07T06:42:56.774Z,6.14
2018-11-07T06:45:09.860Z,6.16
2018-11-07T06:47:22.173Z,6.16
2018-11-07T06:49:34.411Z,6.11
2018-11-07T06:51:46.676Z,6.11
2018-11-07T06:53:58.903Z,6.18
2018-11-07T06:56:11.298Z,6.18
2018-11-07T06:58:23.470Z,6.18
2018-11-07T07:00:35.747Z,6.19
2018-11-07T07:02:48.051Z,6.21
2018-11-07T07:05:00.258Z,6.24
2018-11-07T07:07:12.486Z,6.31
2018-11-07T07:09:24.765Z,6.36
2018-11-07T07:11:36.990Z,6.38
2018-11-07T07:13:49.273Z,6.35
2018-11-07T07:16:01.636Z,6.37
2018-11-07T07:18:13.947Z,6.42
2018-11-07T07:20:26.120Z,6.41
2018-11-07T07:22:38.708Z,6.39
2018-11-07T07:24:50.922Z,6.42
2018-11-07T07:27:03.131Z,6.45
2018-11-07T07:29:15.459Z,6.52
2018-11-07T07:31:27.826Z,6.60
2018-11-07T07:33:40.157Z,6.59
2018-11-07T07:35:52.360Z,6.62
2018-11-07T07:38:05.128Z,6.81
2018-11-07T07:40:17.374Z,6.95
2018-11-07T07:42:29.707Z,7.01
2018-11-07T07:44:41.939Z,7.06
2018-11-07T07:46:54.188Z,7.22
2018-11-07T07:49:06.462Z,7.43
2018-11-07T07:51:18.672Z,7.62
2018-11-07T07:53:30.927Z,7.84
2018-11-07T07:55:43.179Z,8.18
2018-11-07T07:57:55.405Z,8.59
2018-11-07T08:00:19.189Z,9.04
2018-11-07T08:02:31.405Z,9.57
2018-11-07T08:04:43.683Z,10.07
2018-11-07T08:06:55.959Z,10.50
2018-11-07T08:09:10.252Z,10.92
2018-11-07T08:11:22.494Z,11.23
2018-11-07T08:13:34.795Z,11.51
2018-11-07T08:15:46.891Z,11.75
2018-11-07T08:17:59.115Z,11.98
2018-11-07T08:20:12.369Z,12.25
2018-11-07T08:22:24.646Z,12.49
2018-11-07T08:24:36.852Z,12.69
2018-11-07T08:26:49.094Z,12.81
2018-11-07T08:29:01.412Z,12.98
2018-11-07T08:31:13.610Z,13.12
2018-11-07T08:33:25.886Z,13.23
2018-11-07T08:35:38.119Z,13.38
2018-11-07T08:37:50.342Z,13.58
2018-11-07T08:40:02.855Z,13.79
2018-11-07T08:42:15.908Z,13.91
2018-11-07T08:44:28.144Z,14.00
2018-11-07T08:46:40.410Z,14.09
2018-11-07T08:48:52.675Z,14.24
2018-11-07T08:51:04.982Z,14.40
2018-11-07T08:53:17.210Z,14.51
2018-11-07T08:55:29.514Z,14.64
2018-11-07T08:57:41.821Z,14.63
2018-11-07T08:59:54.033Z,14.59
2018-11-07T09:02:06.390Z,14.64
2018-11-07T09:04:18.691Z,14.78
2018-11-07T09:06:30.988Z,14.79
2018-11-07T09:08:44.125Z,14.94
2018-11-07T09:10:56.365Z,14.96
2018-11-07T09:13:08.625Z,15.11
2018-11-07T09:15:21.933Z,15.21
2018-11-07T09:17:34.271Z,15.29
2018-11-07T09:19:46.563Z,15.30
2018-11-07T09:21:58.864Z,15.29
2018-11-07T09:24:11.142Z,15.27
2018-11-07T09:26:23.386Z,15.24
2018-11-07T09:28:35.619Z,15.24
2018-11-07T09:30:47.872Z,15.15
2018-11-07T09:33:00.152Z,15.15
2018-11-07T09:35:12.844Z,15.08
2018-11-07T09:37:25.092Z,15.10
2018-11-07T09:39:37.433Z,15.13
2018-11-07T09:41:49.718Z,15.15
2018-11-07T09:44:01.976Z,15.21
2018-11-07T09:46:14.214Z,15.28
2018-11-07T09:48:26.551Z,15.34
2018-11-07T09:50:38.821Z,15.31
2018-11-07T09:52:51.088Z,15.36
2018-11-07T09:55:03.925Z,15.31
2018-11-07T09:57:16.143Z,15.33
2018-11-07T09:59:28.441Z,15.36
2018-11-07T10:01:40.647Z,15.36
2018-11-07T10:03:52.907Z,15.32
2018-11-07T10:06:05.217Z,15.25
2018-11-07T10:08:17.449Z,15.23
2018-11-07T10:10:29.676Z,15.28
2018-11-07T10:12:42.258Z,15.43
2018-11-07T10:14:54.514Z,15.55
2018-11-07T10:17:06.731Z,15.65
2018-11-07T10:19:18.988Z,15.79
2018-11-07T10:21:31.237Z,15.89
2018-11-07T10:23:43.499Z,15.89
2018-11-07T10:25:55.794Z,15.94
2018-11-07T10:28:08.545Z,16.00
2018-11-07T10:30:21.021Z,16.07
2018-11-07T10:32:32.993Z,16.13
2018-11-07T10:34:49.083Z,16.24
2018-11-07T10:37:01.306Z,16.34
2018-11-07T10:39:13.704Z,16.42
2018-11-07T10:41:25.977Z,16.49
2018-11-07T10:43:38.204Z,16.50
2018-11-07T10:45:50.441Z,16.52
2018-11-07T10:48:02.683Z,16.61
2018-11-07T10:50:15.855Z,16.65
2018-11-07T10:52:30.872Z,16.67
2018-11-07T10:54:43.152Z,16.72
2018-11-07T10:56:55.374Z,16.76
2018-11-07T10:59:07.566Z,16.79
2018-11-07T11:01:25.636Z,16.87
2018-11-07T11:03:37.886Z,16.94
2018-11-07T11:05:50.064Z,17.00
2018-11-07T11:08:02.297Z,17.07
2018-11-07T11:10:18.550Z,17.11
2018-11-07T11:12:30.867Z,17.13
2018-11-07T11:14:43.220Z,17.20
2018-11-07T11:16:55.487Z,17.26
2018-11-07T11:19:07.736Z,17.30
2018-11-07T11:21:20.839Z,17.31
2018-11-07T11:23:33.075Z,17.28
2018-11-07T11:25:46.257Z,17.24
2018-11-07T11:27:58.471Z,17.26
2018-11-07T11:30:10.678Z,17.23
2018-11-07T11:32:22.936Z,17.22
2018-11-07T11:34:35.323Z,17.19
2018-11-07T11:36:47.405Z,17.22
2018-11-07T11:39:01.404Z,17.26
2018-11-07T11:41:13.729Z,17.23
2018-11-07T11:43:25.868Z,17.27
2018-11-07T11:45:38.104Z,17.24
2018-11-07T11:47:50.337Z,17.26
2018-11-07T11:50:02.946Z,17.27
2018-11-07T11:52:15.184Z,17.26
2018-11-07T11:54:27.419Z,17.24
2018-11-07T11:56:39.615Z,17.23
2018-11-07T11:58:51.963Z,17.17
2018-11-07T12:01:04.160Z,17.23
2018-11-07T12:03:19.194Z,17.21
2018-11-07T12:05:31.432Z,17.21
2018-11-07T12:07:43.695Z,17.23
2018-11-07T12:09:55.928Z,17.18
2018-11-07T12:12:09.030Z,17.20
2018-11-07T12:14:21.209Z,17.19
2018-11-07T12:16:33.542Z,17.12
2018-11-07T12:18:45.855Z,17.11
2018-11-07T12:20:58.132Z,17.15
2018-11-07T12:23:12.333Z,17.18
2018-11-07T12:25:24.755Z,17.16
2018-11-07T12:27:37.170Z,17.15
2018-11-07T12:29:49.459Z,17.15
2018-11-07T12:32:01.719Z,17.14
2018-11-07T12:34:13.943Z,17.15
2018-11-07T12:36:26.301Z,17.17
2018-11-07T12:38:43.480Z,17.18
2018-11-07T12:40:57.577Z,17.20
2018-11-07T12:43:09.806Z,17.23
2018-11-07T12:45:22.925Z,17.18
2018-11-07T12:47:36.528Z,17.15
2018-11-07T12:49:48.817Z,17.22
2018-11-07T12:52:01.031Z,17.19
2018-11-07T12:54:14.299Z,17.17
2018-11-07T12:56:26.600Z,17.19
2018-11-07T12:58:38.829Z,17.20
2018-11-07T13:00:51.092Z,17.14
2018-11-07T13:03:04.399Z,17.17
2018-11-07T13:05:17.674Z,17.14
2018-11-07T13:07:29.939Z,17.14
2018-11-07T13:09:42.203Z,17.11
2018-11-07T13:11:54.399Z,17.09
2018-11-07T13:14:06.687Z,17.10
2018-11-07T13:16:18.941Z,17.07
2018-11-07T13:18:31.175Z,17.02
2018-11-07T13:20:49.957Z,16.98
2018-11-07T13:23:03.092Z,16.97
2018-11-07T13:25:15.859Z,16.98
2018-11-07T13:27:28.221Z,16.95
2018-11-07T13:29:40.495Z,16.92
2018-11-07T13:31:52.710Z,16.92
2018-11-07T13:34:05.075Z,16.92
2018-11-07T13:36:17.305Z,16.94
2018-11-07T13:38:30.650Z,16.91
2018-11-07T13:40:42.619Z,16.93
2018-11-07T13:42:54.885Z,16.96
2018-11-07T13:45:09.154Z,16.95
2018-11-07T13:47:21.354Z,16.90
2018-11-07T13:49:33.555Z,16.84
2018-11-07T13:51:46.711Z,16.83
2018-11-07T13:53:59.985Z,16.77
2018-11-07T13:56:12.263Z,16.72
2018-11-07T13:58:24.511Z,16.73
2018-11-07T14:00:36.799Z,16.71
2018-11-07T14:02:49.709Z,16.69
2018-11-07T14:05:02.784Z,16.74
2018-11-07T14:07:16.049Z,16.72
2018-11-07T14:09:28.309Z,16.70
2018-11-07T14:11:40.612Z,16.68
2018-11-07T14:13:53.150Z,16.67
2018-11-07T14:16:05.544Z,16.65
2018-11-07T14:18:19.562Z,16.59
2018-11-07T14:20:31.800Z,16.56
2018-11-07T14:22:44.065Z,16.51
2018-11-07T14:24:59.163Z,16.48
2018-11-07T14:27:11.460Z,16.48
2018-11-07T14:29:23.734Z,16.47
2018-11-07T14:31:36.028Z,16.44
2018-11-07T14:33:48.322Z,16.42
2018-11-07T14:36:00.526Z,16.41
2018-11-07T14:38:12.789Z,16.38
2018-11-07T14:40:25.910Z,16.38
2018-11-07T14:42:38.467Z,16.37
2018-11-07T14:44:50.715Z,16.34
2018-11-07T14:47:02.955Z,16.32
2018-11-07T14:49:15.205Z,16.33
2018-11-07T14:51:27.547Z,16.31
2018-11-07T14:53:39.906Z,16.26
2018-11-07T14:55:52.023Z,16.24
2018-11-07T14:58:04.300Z,16.22
2018-11-07T15:00:17.097Z,16.23
2018-11-07T15:02:29.383Z,16.21
2018-11-07T15:04:41.608Z,16.17
2018-11-07T15:06:53.828Z,16.09
2018-11-07T15:09:07.906Z,15.97
2018-11-07T15:11:20.226Z,15.85
2018-11-07T15:13:32.431Z,15.72
2018-11-07T15:15:44.651Z,15.60
2018-11-07T15:17:56.892Z,15.49
2018-11-07T15:20:10.319Z,15.41
2018-11-07T15:22:22.575Z,15.33
2018-11-07T15:24:35.887Z,15.28
2018-11-07T15:26:48.119Z,15.23
2018-11-07T15:29:00.405Z,15.15
2018-11-07T15:31:12.661Z,15.06
2018-11-07T15:33:25.011Z,14.98
2018-11-07T15:35:37.306Z,14.87
2018-11-07T15:37:49.593Z,14.76
2018-11-07T15:40:01.926Z,14.67
2018-11-07T15:42:14.217Z,14.58
2018-11-07T15:44:26.505Z,14.52
2018-11-07T15:46:38.993Z,14.46
2018-11-07T15:48:51.259Z,14.40
2018-11-07T15:51:09.114Z,14.29
2018-11-07T15:53:21.442Z,14.22
2018-11-07T15:55:33.713Z,14.13
2018-11-07T15:57:45.947Z,14.05
2018-11-07T15:59:58.286Z,13.94
2018-11-07T16:02:10.526Z,13.90
2018-11-07T16:04:22.804Z,13.88
2018-11-07T16:06:35.067Z,13.84
2018-11-07T16:08:47.335Z,13.76
2018-11-07T16:10:59.558Z,13.68
2018-11-07T16:13:11.891Z,13.58
2018-11-07T16:15:24.137Z,13.49
2018-11-07T16:17:36.333Z,13.40
2018-11-07T16:19:48.554Z,13.23
2018-11-07T16:22:00.785Z,13.13
2018-11-07T16:24:13.058Z,12.98
2018-11-07T16:26:25.307Z,12.85
2018-11-07T16:28:37.641Z,12.75
2018-11-07T16:30:49.818Z,12.70
2018-11-07T16:33:02.095Z,12.68
2018-11-07T16:35:14.823Z,12.66
2018-11-07T16:37:27.044Z,12.60
2018-11-07T16:39:39.313Z,12.51
2018-11-07T16:41:51.718Z,12.44
2018-11-07T16:44:03.905Z,12.37
2018-11-07T16:46:16.160Z,12.32
2018-11-07T16:48:28.522Z,12.32
2018-11-07T16:50:40.720Z,12.41
2018-11-07T16:52:52.999Z,12.37
2018-11-07T16:55:05.358Z,12.24
2018-11-07T16:57:17.643Z,12.20
2018-11-07T16:59:29.898Z,12.14
2018-11-07T17:01:42.178Z,12.02
2018-11-07T17:03:54.405Z,11.95
2018-11-07T17:06:06.666Z,11.93
2018-11-07T17:08:18.882Z,11.84
2018-11-07T17:10:31.075Z,11.79
2018-11-07T17:12:43.425Z,11.78
2018-11-07T17:14:55.716Z,11.77
2018-11-07T17:17:07.970Z,11.79
2018-11-07T17:19:20.187Z,11.69
2018-11-07T17:21:32.468Z,11.58
2018-11-07T17:23:45.377Z,11.48
2018-11-07T17:25:57.632Z,11.42
2018-11-07T17:28:09.871Z,11.39
2018-11-07T17:30:22.127Z,11.35
2018-11-07T17:32:34.352Z,11.30
2018-11-07T17:34:46.810Z,11.20
2018-11-07T17:36:59.068Z,11.10
2018-11-07T17:39:11.303Z,11.08
2018-11-07T17:41:23.557Z,11.06
2018-11-07T17:43:35.822Z,11.05
2018-11-07T17:45:48.078Z,11.07
2018-11-07T17:48:00.491Z,11.01
2018-11-07T17:50:13.981Z,10.98
2018-11-07T17:52:26.250Z,10.96
2018-11-07T17:54:38.463Z,10.88
2018-11-07T17:56:50.776Z,10.83
2018-11-07T17:59:03.102Z,10.83
2018-11-07T18:01:15.364Z,10.86
2018-11-07T18:03:27.706Z,10.78
2018-11-07T18:05:39.987Z,10.73
2018-11-07T18:07:52.259Z,10.71
2018-11-07T18:10:06.820Z,10.71
2018-11-07T18:12:19.043Z,10.69
2018-11-07T18:14:31.327Z,10.63
2018-11-07T18:16:43.583Z,10.62
2018-11-07T18:18:55.874Z,10.59
2018-11-07T18:21:08.062Z,10.55
2018-11-07T18:23:20.353Z,10.48
2018-11-07T18:25:32.582Z,10.41
2018-11-07T18:27:44.893Z,10.39
2018-11-07T18:29:57.207Z,10.34
2018-11-07T18:32:09.523Z,10.29
2018-11-07T18:34:21.742Z,10.21
2018-11-07T18:36:33.989Z,10.21
2018-11-07T18:38:46.272Z,10.20
2018-11-07T18:40:58.643Z,10.19
2018-11-07T18:43:10.959Z,10.16
2018-11-07T18:45:23.162Z,10.11
2018-11-07T18:47:35.484Z,10.11
2018-11-07T18:49:47.744Z,10.07
2018-11-07T18:52:00.056Z,10.03
2018-11-07T18:54:12.271Z,10.01
2018-11-07T18:56:24.535Z,10.03
2018-11-07T18:58:36.957Z,9.99
2018-11-07T19:00:49.139Z,9.94
2018-11-07T19:03:01.385Z,9.89
2018-11-07T19:05:13.682Z,9.81
2018-11-07T19:07:25.972Z,9.80
2018-11-07T19:09:38.238Z,9.77
2018-11-07T19:11:50.535Z,9.74
2018-11-07T19:14:02.843Z,9.62
2018-11-07T19:16:15.067Z,9.53
2018-11-07T19:18:27.321Z,9.45
2018-11-07T19:20:39.590Z,9.42
2018-11-07T19:22:51.902Z,9.42
2018-11-07T19:25:05.503Z,9.42
2018-11-07T19:27:17.873Z,9.42
2018-11-07T19:29:30.046Z,9.43
2018-11-07T19:31:42.343Z,9.44
2018-11-07T19:33:54.656Z,9.40
2018-11-07T19:36:06.863Z,9.32
2018-11-07T19:38:19.210Z,9.31
2018-11-07T19:40:31.522Z,9.26
2018-11-07T19:42:43.738Z,9.22
2018-11-07T19:44:56.008Z,9.24
2018-11-07T19:47:08.315Z,9.21
2018-11-07T19:49:20.586Z,9.23
2018-11-07T19:51:33.043Z,9.20
2018-11-07T19:53:45.346Z,9.19
2018-11-07T19:55:57.571Z,9.17
2018-11-07T19:58:09.891Z,9.16
2018-11-07T20:00:22.111Z,9.14
2018-11-07T20:02:34.390Z,9.13
2018-11-07T20:04:46.691Z,9.13
2018-11-07T20:06:58.951Z,9.10
2018-11-07T20:09:11.195Z,9.11
2018-11-07T20:11:23.485Z,9.11
2018-11-07T20:13:35.737Z,9.09
2018-11-07T20:15:48.001Z,9.09
2018-11-07T20:18:00.248Z,9.09
2018-11-07T20:20:12.998Z,9.05
2018-11-07T20:22:25.208Z,9.01
2018-11-07T20:24:37.448Z,8.99
2018-11-07T20:26:49.707Z,9.02
2018-11-07T20:29:02.017Z,9.06
2018-11-07T20:31:14.329Z,9.09
2018-11-07T20:33:27.258Z,9.09
2018-11-07T20:35:39.615Z,9.09
2018-11-07T20:37:51.819Z,9.12
2018-11-07T20:40:05.391Z,9.10
2018-11-07T20:42:17.696Z,9.08
2018-11-07T20:44:29.986Z,9.10
2018-11-07T20:46:42.313Z,9.15
2018-11-07T20:48:54.587Z,9.21
2018-11-07T20:51:06.876Z,9.25
2018-11-07T20:53:19.295Z,9.28
2018-11-07T20:55:31.556Z,9.26
2018-11-07T20:57:43.836Z,9.28
2018-11-07T20:59:56.147Z,9.30
2018-11-07T21:02:08.455Z,9.31
2018-11-07T21:04:20.715Z,9.31
2018-11-07T21:06:32.939Z,9.34
2018-11-07T21:08:45.189Z,9.30
2018-11-07T21:10:57.434Z,9.27
2018-11-07T21:13:09.691Z,9.27
2018-11-07T21:15:22.001Z,9.29
2018-11-07T21:17:34.328Z,9.31
2018-11-07T21:19:46.624Z,9.37
2018-11-07T21:21:58.885Z,9.41
2018-11-07T21:24:11.120Z,9.42
2018-11-07T21:26:23.431Z,9.44
2018-11-07T21:28:35.661Z,9.44
2018-11-07T21:30:48.008Z,9.47
2018-11-07T21:33:00.272Z,9.52
2018-11-07T21:35:13.339Z,9.57
2018-11-07T21:37:25.651Z,9.60
2018-11-07T21:39:37.927Z,9.65
2018-11-07T21:41:50.161Z,9.70
2018-11-07T21:44:02.545Z,9.72
2018-11-07T21:46:14.755Z,9.73
2018-11-07T21:48:26.974Z,9.76
2018-11-07T21:50:39.280Z,9.75
2018-11-07T21:52:51.586Z,9.74
2018-11-07T21:55:04.530Z,9.72
2018-11-07T21:57:16.791Z,9.73
2018-11-07T21:59:29.029Z,9.76
2018-11-07T22:01:41.273Z,9.77
2018-11-07T22:03:53.503Z,9.81
2018-11-07T22:06:05.750Z,9.83
2018-11-07T22:08:18.009Z,9.86
2018-11-07T22:10:30.246Z,9.83
2018-11-07T22:12:42.481Z,9.83
2018-11-07T22:14:54.787Z,9.84
2018-11-07T22:17:07.168Z,9.88
2018-11-07T22:19:19.407Z,9.91
2018-11-07T22:21:31.654Z,9.93
2018-11-07T22:23:43.894Z,9.96
2018-11-07T22:25:56.104Z,9.99
2018-11-07T22:28:08.363Z,10.00
2018-11-07T22:30:20.612Z,10.02
2018-11-07T22:32:32.834Z,10.02
2018-11-07T22:34:45.142Z,10.03
2018-11-07T22:36:57.421Z,10.03
2018-11-07T22:39:11.876Z,10.03
2018-11-07T22:41:24.222Z,10.02
2018-11-07T22:43:36.436Z,10.02
2018-11-07T22:45:48.659Z,10.01
2018-11-07T22:48:00.869Z,10.02
2018-11-07T22:50:14.098Z,10.01
2018-11-07T22:52:26.402Z,9.98
2018-11-07T22:54:38.592Z,9.94
2018-11-07T22:56:50.871Z,9.88
2018-11-07T22:59:03.093Z,9.87
2018-11-07T23:01:22.108Z,9.88
2018-11-07T23:03:34.337Z,9.87
2018-11-07T23:05:46.574Z,9.87
2018-11-07T23:07:58.816Z,9.82
2018-11-07T23:10:11.016Z,9.84
2018-11-07T23:12:23.250Z,9.86
2018-11-07T23:14:35.476Z,9.86
2018-11-07T23:16:47.667Z,9.89
2018-11-07T23:18:59.955Z,9.92
2018-11-07T23:21:12.228Z,9.91
2018-11-07T23:23:24.467Z,9.94
2018-11-07T23:25:36.657Z,9.97
2018-11-07T23:27:48.964Z,9.98
2018-11-07T23:30:01.177Z,9.98
2018-11-07T23:32:13.402Z,9.96
2018-11-07T23:34:25.598Z,9.94
2018-11-07T23:36:37.803Z,9.92
2018-11-07T23:38:50.266Z,9.92
2018-11-07T23:41:02.451Z,9.89
2018-11-07T23:43:14.716Z,9.86
2018-11-07T23:45:26.914Z,9.84
2018-11-07T23:47:39.200Z,9.87
2018-11-07T23:49:51.387Z,9.86
2018-11-07T23:52:03.726Z,9.87
2018-11-07T23:54:16.984Z,9.90
2018-11-07T23:56:29.150Z,9.92
2018-11-07T23:58:41.391Z,10.00
